Miercoles, 02 de Septiembre del 2015

portal contactenos mapa del sitio buscar Revisar Correo Corporativo

|Reporte METAR por Reginal » ||Reporte TAF por Reginal » ||Reporte METAR, TAF y SIN覲TICO »

Reporte METAR por Regional

|| La Paz || Santa Cruz || Cochabamba || Beni - Pando ||

Informe METAR emitido cada hora.

Regional La Paz

ESTACIÓN

AEROPUERTO

HORA UTC

DESCRIPCIÓN

SLRY

Reyes

14-18S|67-21W

18:00

SLRY 021800Z 36005KT 9999 NSC 35/23 Q1014 A2995 HR49 RWY OPR 1 100M=

SLRQ

Rurrenabaque

14-25S|67-29W

18:00

SLRQ 021800Z 00000KT 9999 FEW020 36/26 Q1012 A2990 HR59=

SLAP

Apolo

14-44S|68-24W

-

Mensaje no Recibido

SLSB

San Borja

14-51S|66-44W

18:00

SLSB 021800Z 29003KT 8000 NSC 36/24 Q1012 A2989 FU HR51 R WY NML=

SLLP

Internaci贸nal El Alto

16-08S|68-10W

18:00

SLLP 021800Z 04013KT 010V100 9999 -TSRA SCT017 FEW020CB SCT200 10/00 Q1039 A3071 629.4 P4754 CB N/NE/NW AC HR51 NOSIG=

SLCN

Chara帽a

17-35S|69-25W

-

Mensaje no Recibido

SLOR

Oruro

17-57S|67-04W

18:00

SLOR 021800Z 33009KT 9999 SCT017 FEW020CB 16/M02 Q1037 A3064 657.7 CB/N/NE/SE AC HR30=

SLUY

Uyuni

20-27S|62-52W

18:00

SLUY 021800Z 31005KT 9999 FEW017 15/M06 Q1035 A3058 659.3 HR24=

Regional Cochabamba

ESTACIÓN

AEROPUERTO

HORA UTC

DESCRIPCIÓN

SLCB

Cochabamba

17-25S|66-10W

18:00

SLCB 021800Z 34006KT 9999 SCT027 25/03 Q1026 A3032 752.8 HR24 FU AC NOSIG=

SLSU

Sucre

19-00S|65-17W

18:00

SLSU 021800Z 04012KT 9999 FEW020 21/05 Q1031 A3045 HR36=

SLPO

Potos铆

19-32S|65-43W

18:00

SLPO 021800Z 06010KT 9999 FEW020 15/01 Q1040 A3071 HR38=

SLAG

Monteagudo

19-49S|63-58W

18:00

SLAG 021800Z WO ATTN=

SLVM

Villamontes

21-15S|63-24W

18:00

SLVM 021800Z 09010KT 9999 NSC 28/17 Q1014 A2994 HR49 FU=

SLTJ

Tarija

21-33S|64-42W

18:00

SLTJ 021800Z 13011KT 9999 FEW040 32/14 Q1017 A3003 HR31 FU=

SLYA

Yacuiba

21-57S|63-39W

18:00

SLYA 021800Z 18008KT 9999 SCT025 26/16 Q1017 A3004 HR55 FU AC CI=

SLBJ

Bermejo

22-46S|64-18W

18:00

SLBJ 021800Z 18010KT 9999 FEW015 SCT070 26/17 Q1015 A2997 HR57=

Regional Santa Cruz

ESTACIÓN

AEROPUERTO

HORA UTC

DESCRIPCIÓN

SLAS

Ascenci贸n de Guarayos

15-55S|63-09W

18:00

SLAS 021800Z 00000KT 9999 FEW020 35/21 Q1014 A2994 HR44 RWY NML =

SLCP

Concepci贸n

16-08S|62-01W

18:00

SLCP 021800Z 00000KT 9999 BKN020 33/22 Q1016 A3000 HR52 FU RWY NML=

SLJV

San Javier

16-16S|62-28W

18:00

SLJV 021800Z 16006KT 9999 FEW020 32/21 Q1013 A2991 HR51 FU RWY NML=

SLTI

San Mat铆as

16-20S|58-24W

18:00

SLTI 021800Z 00000KT 9999 NSC 40/16 Q1016 A3000 HR23 RWY NML=

SLSI

San Ignacio de Velasco

16-23S|60-57W

18:00

SLSI 021800Z 00000KT 9999 SCT020 35/21 Q1013 A2991 HR43 RWY NML =

SLVR

Internaci贸nal Viru Viru

17-38S|63-08W

18:00

SLVR 021800Z 17002KT 9999 NSC 32/18 Q1014 A2996 HR44 NOSIG=

SLET

El Trompillo

17-48S|63-10W

18:00

SLET 021800Z 14004KT 9000 NSC 32/21 Q1013 A2993 HR51 FU NOSIG=

SLJE

San Jos茅 de Chiquitos

17-49S|60-44W

18:00

SLJE 021800Z 36006KT 8000 FEW020 39/20 Q1015 A2997 HR34 FU RWY NML=

SLRB

Robor茅

18-19S|59-45W

18:00

SLRB 021800Z 00000KT 9999 NSC 35/21 Q1014 A2994 HR45 RWY NML=

SLVG

Valle Grande

18-28S|64-05W

18:00

SLVG 021800Z 36010KT 9999 SCT030 25/11 Q1026 A3030 HR39 FU RWY NML=

SLPS

Puerto Su谩rez

18-58S|57-49W

18:00

SLPS 021800Z 06004KT 9999 NSC 37/18 Q1011 A2986 HR33 FU=

SLCA

Camiri

20-00S|63-31W

18:00

SLCA 021800Z 15005KT 9999 NSC 31/16 Q1015 A2997 HR42 FU RWY NML =

Regional Beni

ESTACIÓN

AEROPUERTO

HORA UTC

DESCRIPCIÓN

SLGM

Guayaramer铆n

10-49S|65-20W

18:00

SLGM 021800Z 17010KT 7000 FEW017 35/22 Q1014 A2995 HR46 FU=

SLRI

Riberalta

11-00S|66-04W

18:00

COR SLRI 021800Z 30010KT 5000 FU SCT020 34/23 Q1013 A2992 HR52=

SLCO

Cobija

11-02S|68-47W

18:00

SLCO 021800Z 00000KT 9999 SCT033 34/23 Q1013 A2993 986.2 FU CI HR51=

SLJO

San Joaquin

13-03S|64-39W

18:00

SLJO 021800Z 32006KT 8000 FEW017 33/23 Q1012 A2991 HR54 FU RWY NML=

SLMG

San Magdalena

13-15S|64-03W

18:00

SLMG 021800Z 18006KT 8000 SCT017 36/23 Q1012 A2991 HR49 FU RWY NML=

SLRA

San Ram贸n

13-15S|64-36W

18:00

SLRA 021800Z 27006KT 8000 FEW017 BKN080 35/22 Q1012 A2991 HR47 FU RWY NML=

SLBU

Baures

13-39S|63-42W

18:00

SLBU 021800Z 00000KT 8000 SCT023 37/22 Q1012 A2991 HR41 FU RWY NML=

SLSA

Santa Ana de Yacuma

13-45S|65-26W

18:00

SLSA 021800Z 02006KT 8000 SCT020 36/20 Q1011 A2986 HR40 FU=

SLSR

Santa Rosa

14-04S|66-47W

18:00

SLSR 021800Z 00000KT 8000 FEW020 37/23 Q1009 A2980 HR46 FU RWY NML=

SLTR

Trinidad

14-49S|64-54W

18:00

SLTR 021800Z 00000KT 8000 VCSH FEW025 FEW027CB 36/21 Q1012 A2989 993.7 HR42 FU CB/SH SE NOSIG=

SLSM

San Ignacio de Moxos

14-57S|65-38W

18:00

SLSM 021800Z 00000KT 9999 FEW017 34/22 Q1010 A2984 HR50 RWY NML=